Polaris — JD2797 — position and weather

sailwx.info

Track history (hours):
 
Tides and Currents Weather Stations Pressure Air Temp Water Temp Dewpoint Dewpoint Depression Visibility Wind Speed Wind Dir Waves Ship Positions

Polaris

Last reported at 2017-Nov-20 00:26 UTC. Time now 2017-Nov-24 20:50 UTC.
Position N 35°19' E 139°38'.

Length 30 m; draft 2.6 m.

Type: Pilot. MMSI: 431000764.

Date/timePositionNaut miles runAvg speedWind from/ knotsBaromVisibWave heightAir tempDewpointWater temp
2017-Nov-20 00:26N 35°19' E 139°38'0 0.0
2017-Nov-19 23:54N 35°19' E 139°38'0 0.0
2017-Nov-19 23:29N 35°19' E 139°38'0 0.0
2017-Nov-19 23:00N 35°19' E 139°38'0 0.0
2017-Nov-19 22:24N 35°19' E 139°38'0 1.1
2017-Nov-19 22:01N 35°18' E 139°39'612.9
2017-Nov-19 21:30N 35°15' E 139°45'1 2.5
2017-Nov-19 21:00N 35°16' E 139°46'611.9
2017-Nov-19 20:30N 35°21' E 139°42'3 5.1
2017-Nov-19 20:00N 35°23' E 139°40'2 3.6
2017-Nov-19 19:30N 35°24' E 139°42'3 5.7
2017-Nov-19 19:00N 35°27' E 139°40'0 0.0
2017-Nov-19 18:30N 35°27' E 139°40'0 0.0
2017-Nov-19 18:00N 35°27' E 139°40'0 0.0
2017-Nov-19 17:30N 35°27' E 139°40'0 0.0
2017-Nov-19 17:00N 35°27' E 139°40'0 0.0
2017-Nov-19 16:30N 35°27' E 139°40'1 1.9
2017-Nov-19 16:01N 35°27' E 139°41'611.7
2017-Nov-19 15:31N 35°23' E 139°46'612.0
2017-Nov-19 15:00N 35°17' E 139°45'612.0
2017-Nov-19 14:30N 35°11' E 139°47'1 2.1
2017-Nov-19 14:00N 35°12' E 139°46'713.7
2017-Nov-19 13:30N 35°18' E 139°43'  
2017-Nov-17 05:28N 35°19' E 139°38'3 7.4
2017-Nov-17 05:01N 35°21' E 139°41'714.0
2017-Nov-17 04:31N 35°28' E 139°43'0 0.4
2017-Nov-17 04:00N 35°28' E 139°43'0 0.3
2017-Nov-17 03:31N 35°28' E 139°43'0 0.2
2017-Nov-17 03:00N 35°28' E 139°43'0 0.2
2017-Nov-17 02:30N 35°28' E 139°43'0 0.3
2017-Nov-17 02:01N 35°28' E 139°43'0 0.1
2017-Nov-17 01:30N 35°28' E 139°43'0 0.3
2017-Nov-17 01:00N 35°28' E 139°43'0 0.2
2017-Nov-17 00:30N 35°28' E 139°43'0 0.5
2017-Nov-17 00:00N 35°28' E 139°43'0 0.3
2017-Nov-16 23:31N 35°28' E 139°43'0 0.1
2017-Nov-16 23:01N 35°28' E 139°43'0 0.2
2017-Nov-16 22:30N 35°28' E 139°43'0 0.1
2017-Nov-16 22:00N 35°28' E 139°43'0 0.2
2017-Nov-16 21:30N 35°28' E 139°43'0 0.2
2017-Nov-16 21:00N 35°28' E 139°43'0 0.4
2017-Nov-16 20:30N 35°28' E 139°43'0 0.3
2017-Nov-16 20:00N 35°28' E 139°43'0 0.4
2017-Nov-16 19:30N 35°28' E 139°43'0 0.5
2017-Nov-16 19:01N 35°28' E 139°43'0 0.3
2017-Nov-16 18:30N 35°28' E 139°43'0 0.4
2017-Nov-16 18:00N 35°27' E 139°43'0 0.3
2017-Nov-16 17:30N 35°28' E 139°43'0 0.2
2017-Nov-16 17:00N 35°28' E 139°43'0 0.1
2017-Nov-16 16:30N 35°28' E 139°43'0 0.1
2017-Nov-16 16:01N 35°28' E 139°43'0 0.1
2017-Nov-16 15:30N 35°28' E 139°43'0 0.1
2017-Nov-16 15:00N 35°28' E 139°43'0 0.3
2017-Nov-16 14:31N 35°28' E 139°43'0 0.5
2017-Nov-16 14:01N 35°28' E 139°43'0 0.5
2017-Nov-16 13:30N 35°28' E 139°43'0 0.0
2017-Nov-16 13:00N 35°28' E 139°43'0 0.0
2017-Nov-16 12:30N 35°28' E 139°43'0 0.0
2017-Nov-16 12:00N 35°28' E 139°43'0 0.5
2017-Nov-16 11:30N 35°28' E 139°43'0 0.4
2017-Nov-16 11:00N 35°28' E 139°43'0 0.4
2017-Nov-16 10:30N 35°28' E 139°43'0 0.2
2017-Nov-16 10:01N 35°28' E 139°43'0 0.1
2017-Nov-16 09:30N 35°28' E 139°43'0 0.2
2017-Nov-16 09:01N 35°28' E 139°43'0 0.4
2017-Nov-16 08:31N 35°28' E 139°43'0 0.1
2017-Nov-16 08:00N 35°27' E 139°43'0 0.1
2017-Nov-16 07:30N 35°28' E 139°43'0 0.3
2017-Nov-16 07:00N 35°27' E 139°43'0 0.2
2017-Nov-16 06:30N 35°28' E 139°43'0 0.2
2017-Nov-16 06:00N 35°28' E 139°43'2 3.5
2017-Nov-16 05:31N 35°27' E 139°41'1 2.8
2017-Nov-16 05:01N 35°27' E 139°40'0 0.0
2017-Nov-16 04:30N 35°27' E 139°40'0 0.0
2017-Nov-16 04:00N 35°27' E 139°40'0 0.0
2017-Nov-16 03:30N 35°27' E 139°40'0 0.0
2017-Nov-16 03:00N 35°27' E 139°40'0 0.0
2017-Nov-16 02:31N 35°27' E 139°40'0 0.0
2017-Nov-16 02:00N 35°27' E 139°40'0 0.0
2017-Nov-16 01:30N 35°27' E 139°40'0 0.0
2017-Nov-16 01:00N 35°27' E 139°40'1 1.4
2017-Nov-16 00:30N 35°27' E 139°40'5 9.4
2017-Nov-16 00:00N 35°31' E 139°44'2 4.3
2017-Nov-15 23:31N 35°29' E 139°42'2 4.2
2017-Nov-15 23:00N 35°27' E 139°43'0 0.9
2017-Nov-15 22:31N 35°27' E 139°43'0 0.2
2017-Nov-15 22:00N 35°27' E 139°43'1 2.9
2017-Nov-15 21:30N 35°26' E 139°41'3 5.2
2017-Nov-15 21:00N 35°23' E 139°42'4 8.7
2017-Nov-15 20:30N 35°19' E 139°43'4 8.7
2017-Nov-15 20:00N 35°15' E 139°45'1 1.5
2017-Nov-15 19:30N 35°15' E 139°46'612.5
2017-Nov-15 19:00N 35°20' E 139°42'611.6
2017-Nov-15 18:31N 35°26' E 139°44'3 6.0
2017-Nov-15 18:01N 35°29' E 139°45'1 1.6
2017-Nov-15 17:30N 35°28' E 139°45'713.7
2017-Nov-15 17:00N 35°22' E 139°41'4 7.8
2017-Nov-15 16:30N 35°19' E 139°38'0 0.0
2017-Nov-15 16:00N 35°19' E 139°38'0 0.0
2017-Nov-15 15:30N 35°19' E 139°38'0 0.0
2017-Nov-15 12:44N 35°19' E 139°38'0 0.0
2017-Nov-15 12:30N 35°19' E 139°38'0 0.0
2017-Nov-15 12:00N 35°19' E 139°38'0 0.0
2017-Nov-15 11:30N 35°19' E 139°38'0 0.0
2017-Nov-15 10:59N 35°19' E 139°38'0 0.0
2017-Nov-15 10:30N 35°19' E 139°38'0 0.0
2017-Nov-15 10:00N 35°19' E 139°38'0 0.0
2017-Nov-15 09:30N 35°19' E 139°38'0 0.0
2017-Nov-15 09:00N 35°19' E 139°38'0 0.0
2017-Nov-15 08:28N 35°19' E 139°38'2 5.1
2017-Nov-15 08:00N 35°20' E 139°41'713.2
2017-Nov-15 07:30N 35°25' E 139°47'612.3
2017-Nov-15 07:00N 35°19' E 139°44'611.9
2017-Nov-15 06:30N 35°13' E 139°47'3 6.7
2017-Nov-15 06:00N 35°10' E 139°47'611.4
2017-Nov-15 05:30N 35°16' E 139°45'612.2
2017-Nov-15 05:00N 35°18' E 139°39'0 0.0
2017-Nov-13 01:57N 35°19' E 139°38'0 0.0
2017-Nov-13 01:24N 35°19' E 139°38'0 0.0
2017-Nov-13 00:58N 35°19' E 139°38'0 0.0
2017-Nov-12 23:36N 35°19' E 139°38'1 8.6
2017-Nov-12 23:30N 35°19' E 139°39'713.3
2017-Nov-12 23:00N 35°25' E 139°42'2 4.7
2017-Nov-12 22:30N 35°27' E 139°40'1 1.7
2017-Nov-12 22:00N 35°27' E 139°41'510.2
2017-Nov-12 21:30N 35°25' E 139°46'511.0
2017-Nov-12 21:00N 35°19' E 139°44'5 9.0
2017-Nov-12 20:31N 35°16' E 139°47'510.1
2017-Nov-12 20:00N 35°10' E 139°47'3 5.5
2017-Nov-12 19:30N 35°13' E 139°46'713.8
2017-Nov-12 19:00N 35°19' E 139°41'2 0.5
2017-Nov-12 15:16N 35°19' E 139°38'0 0.0
2017-Nov-12 09:10N 35°19' E 139°38'210.5
2017-Nov-12 09:01N 35°19' E 139°40'714.4
2017-Nov-12 08:31N 35°13' E 139°46'4 8.7
2017-Nov-12 08:00N 35°17' E 139°45'714.2
2017-Nov-12 07:30N 35°24' E 139°43'2 3.7
2017-Nov-12 07:00N 35°25' E 139°45'3 6.3
2017-Nov-12 06:30N 35°22' E 139°43'510.4
2017-Nov-12 06:00N 35°19' E 139°38'0 0.0
2017-Nov-12 05:30N 35°19' E 139°38'0 0.0
2017-Nov-12 04:53N 35°19' E 139°38'0 0.0
2017-Nov-12 04:17N 35°19' E 139°38'0 0.0
2017-Nov-12 04:00N 35°19' E 139°38'0 0.0
2017-Nov-12 03:28N 35°19' E 139°38'0 0.0
2017-Nov-12 02:54N 35°19' E 139°38'0 0.0
2017-Nov-12 02:30N 35°19' E 139°38'611.2
2017-Nov-12 02:00N 35°22' E 139°44'1 2.7
2017-Nov-12 01:30N 35°22' E 139°45'510.8
2017-Nov-12 01:00N 35°17' E 139°46'612.3
2017-Nov-12 00:30N 35°11' E 139°47'2 4.4
2017-Nov-12 00:00N 35°13' E 139°46'713.0
2017-Nov-11 23:29N 35°19' E 139°42'3 0.1
2017-Nov-10 14:17N 35°19' E 139°38'311.5
2017-Nov-10 14:00N 35°18' E 139°42'612.5
2017-Nov-10 13:30N 35°13' E 139°46'612.6
2017-Nov-10 13:00N 35°18' E 139°44'510.8
2017-Nov-10 12:31N 35°23' E 139°41'1 1.4
2017-Nov-10 12:01N 35°23' E 139°40'2 3.2
2017-Nov-10 11:30N 35°22' E 139°41'4 1.1
2017-Nov-10 07:34N 35°19' E 139°38'0 0.0
2017-Nov-10 07:25N 35°19' E 139°38'0 0.0
2017-Nov-10 07:00N 35°19' E 139°38'0 0.0
2017-Nov-10 06:28N 35°19' E 139°38'0 0.0
2017-Nov-10 05:56N 35°19' E 139°38'0 0.0
2017-Nov-10 05:29N 35°19' E 139°38'0 0.0
2017-Nov-10 04:47N 35°19' E 139°38'0 0.0
2017-Nov-10 04:29N 35°19' E 139°38'0 0.0
2017-Nov-10 04:00N 35°19' E 139°38'0 0.0
2017-Nov-10 03:30N 35°19' E 139°38'4 8.2
2017-Nov-10 03:01N 35°20' E 139°43'611.6
2017-Nov-10 02:30N 35°15' E 139°47'4 8.9
2017-Nov-10 02:00N 35°10' E 139°47'4 8.7
2017-Nov-10 01:30N 35°14' E 139°45'612.8
2017-Nov-10 01:00N 35°19' E 139°40'1 2.0
2017-Nov-10 00:30N 35°19' E 139°38'  
Track history (hours):
 
Tides and Currents Weather Stations Pressure Air Temp Water Temp Dewpoint Dewpoint Depression Visibility Wind Speed Wind Dir Waves Ship Positions

Polaris

Last reported at 2017-Nov-20 00:26 UTC. Time now 2017-Nov-24 20:50 UTC.
Position N 35°19' E 139°38'.

Length 30 m; draft 2.6 m.

Type: Pilot. MMSI: 431000764.

Date/timePositionNaut miles runAvg speedWind from/ knotsBaromVisibWave heightAir tempDewpointWater temp
2017-Nov-20 00:26N 35°19' E 139°38'0 0.0
2017-Nov-19 23:54N 35°19' E 139°38'0 0.0
2017-Nov-19 23:29N 35°19' E 139°38'0 0.0
2017-Nov-19 23:00N 35°19' E 139°38'0 0.0
2017-Nov-19 22:24N 35°19' E 139°38'0 1.1
2017-Nov-19 22:01N 35°18' E 139°39'612.9
2017-Nov-19 21:30N 35°15' E 139°45'1 2.5
2017-Nov-19 21:00N 35°16' E 139°46'611.9
2017-Nov-19 20:30N 35°21' E 139°42'3 5.1
2017-Nov-19 20:00N 35°23' E 139°40'2 3.6
2017-Nov-19 19:30N 35°24' E 139°42'3 5.7
2017-Nov-19 19:00N 35°27' E 139°40'0 0.0
2017-Nov-19 18:30N 35°27' E 139°40'0 0.0
2017-Nov-19 18:00N 35°27' E 139°40'0 0.0
2017-Nov-19 17:30N 35°27' E 139°40'0 0.0
2017-Nov-19 17:00N 35°27' E 139°40'0 0.0
2017-Nov-19 16:30N 35°27' E 139°40'1 1.9
2017-Nov-19 16:01N 35°27' E 139°41'611.7
2017-Nov-19 15:31N 35°23' E 139°46'612.0
2017-Nov-19 15:00N 35°17' E 139°45'612.0
2017-Nov-19 14:30N 35°11' E 139°47'1 2.1
2017-Nov-19 14:00N 35°12' E 139°46'713.7
2017-Nov-19 13:30N 35°18' E 139°43'  
2017-Nov-17 05:28N 35°19' E 139°38'3 7.4
2017-Nov-17 05:01N 35°21' E 139°41'714.0
2017-Nov-17 04:31N 35°28' E 139°43'0 0.4
2017-Nov-17 04:00N 35°28' E 139°43'0 0.3
2017-Nov-17 03:31N 35°28' E 139°43'0 0.2
2017-Nov-17 03:00N 35°28' E 139°43'0 0.2
2017-Nov-17 02:30N 35°28' E 139°43'0 0.3
2017-Nov-17 02:01N 35°28' E 139°43'0 0.1
2017-Nov-17 01:30N 35°28' E 139°43'0 0.3
2017-Nov-17 01:00N 35°28' E 139°43'0 0.2
2017-Nov-17 00:30N 35°28' E 139°43'0 0.5
2017-Nov-17 00:00N 35°28' E 139°43'0 0.3
2017-Nov-16 23:31N 35°28' E 139°43'0 0.1
2017-Nov-16 23:01N 35°28' E 139°43'0 0.2
2017-Nov-16 22:30N 35°28' E 139°43'0 0.1
2017-Nov-16 22:00N 35°28' E 139°43'0 0.2
2017-Nov-16 21:30N 35°28' E 139°43'0 0.2
2017-Nov-16 21:00N 35°28' E 139°43'0 0.4
2017-Nov-16 20:30N 35°28' E 139°43'0 0.3
2017-Nov-16 20:00N 35°28' E 139°43'0 0.4
2017-Nov-16 19:30N 35°28' E 139°43'0 0.5
2017-Nov-16 19:01N 35°28' E 139°43'0 0.3
2017-Nov-16 18:30N 35°28' E 139°43'0 0.4
2017-Nov-16 18:00N 35°27' E 139°43'0 0.3
2017-Nov-16 17:30N 35°28' E 139°43'0 0.2
2017-Nov-16 17:00N 35°28' E 139°43'0 0.1
2017-Nov-16 16:30N 35°28' E 139°43'0 0.1
2017-Nov-16 16:01N 35°28' E 139°43'0 0.1
2017-Nov-16 15:30N 35°28' E 139°43'0 0.1
2017-Nov-16 15:00N 35°28' E 139°43'0 0.3
2017-Nov-16 14:31N 35°28' E 139°43'0 0.5
2017-Nov-16 14:01N 35°28' E 139°43'0 0.5
2017-Nov-16 13:30N 35°28' E 139°43'0 0.0
2017-Nov-16 13:00N 35°28' E 139°43'0 0.0
2017-Nov-16 12:30N 35°28' E 139°43'0 0.0
2017-Nov-16 12:00N 35°28' E 139°43'0 0.5
2017-Nov-16 11:30N 35°28' E 139°43'0 0.4
2017-Nov-16 11:00N 35°28' E 139°43'0 0.4
2017-Nov-16 10:30N 35°28' E 139°43'0 0.2
2017-Nov-16 10:01N 35°28' E 139°43'0 0.1
2017-Nov-16 09:30N 35°28' E 139°43'0 0.2
2017-Nov-16 09:01N 35°28' E 139°43'0 0.4
2017-Nov-16 08:31N 35°28' E 139°43'0 0.1
2017-Nov-16 08:00N 35°27' E 139°43'0 0.1
2017-Nov-16 07:30N 35°28' E 139°43'0 0.3
2017-Nov-16 07:00N 35°27' E 139°43'0 0.2
2017-Nov-16 06:30N 35°28' E 139°43'0 0.2
2017-Nov-16 06:00N 35°28' E 139°43'2 3.5
2017-Nov-16 05:31N 35°27' E 139°41'1 2.8
2017-Nov-16 05:01N 35°27' E 139°40'0 0.0
2017-Nov-16 04:30N 35°27' E 139°40'0 0.0
2017-Nov-16 04:00N 35°27' E 139°40'0 0.0
2017-Nov-16 03:30N 35°27' E 139°40'0 0.0
2017-Nov-16 03:00N 35°27' E 139°40'0 0.0
2017-Nov-16 02:31N 35°27' E 139°40'0 0.0
2017-Nov-16 02:00N 35°27' E 139°40'0 0.0
2017-Nov-16 01:30N 35°27' E 139°40'0 0.0
2017-Nov-16 01:00N 35°27' E 139°40'1 1.4
2017-Nov-16 00:30N 35°27' E 139°40'5 9.4
2017-Nov-16 00:00N 35°31' E 139°44'2 4.3
2017-Nov-15 23:31N 35°29' E 139°42'2 4.2
2017-Nov-15 23:00N 35°27' E 139°43'0 0.9
2017-Nov-15 22:31N 35°27' E 139°43'0 0.2
2017-Nov-15 22:00N 35°27' E 139°43'1 2.9
2017-Nov-15 21:30N 35°26' E 139°41'3 5.2
2017-Nov-15 21:00N 35°23' E 139°42'4 8.7
2017-Nov-15 20:30N 35°19' E 139°43'4 8.7
2017-Nov-15 20:00N 35°15' E 139°45'1 1.5
2017-Nov-15 19:30N 35°15' E 139°46'612.5
2017-Nov-15 19:00N 35°20' E 139°42'611.6
2017-Nov-15 18:31N 35°26' E 139°44'3 6.0
2017-Nov-15 18:01N 35°29' E 139°45'1 1.6
2017-Nov-15 17:30N 35°28' E 139°45'713.7
2017-Nov-15 17:00N 35°22' E 139°41'4 7.8
2017-Nov-15 16:30N 35°19' E 139°38'0 0.0
2017-Nov-15 16:00N 35°19' E 139°38'0 0.0
2017-Nov-15 15:30N 35°19' E 139°38'0 0.0
2017-Nov-15 12:44N 35°19' E 139°38'0 0.0
2017-Nov-15 12:30N 35°19' E 139°38'0 0.0
2017-Nov-15 12:00N 35°19' E 139°38'0 0.0
2017-Nov-15 11:30N 35°19' E 139°38'0 0.0
2017-Nov-15 10:59N 35°19' E 139°38'0 0.0
2017-Nov-15 10:30N 35°19' E 139°38'0 0.0
2017-Nov-15 10:00N 35°19' E 139°38'0 0.0
2017-Nov-15 09:30N 35°19' E 139°38'0 0.0
2017-Nov-15 09:00N 35°19' E 139°38'0 0.0
2017-Nov-15 08:28N 35°19' E 139°38'2 5.1
2017-Nov-15 08:00N 35°20' E 139°41'713.2
2017-Nov-15 07:30N 35°25' E 139°47'612.3
2017-Nov-15 07:00N 35°19' E 139°44'611.9
2017-Nov-15 06:30N 35°13' E 139°47'3 6.7
2017-Nov-15 06:00N 35°10' E 139°47'611.4
2017-Nov-15 05:30N 35°16' E 139°45'612.2
2017-Nov-15 05:00N 35°18' E 139°39'0 0.0
2017-Nov-13 01:57N 35°19' E 139°38'0 0.0
2017-Nov-13 01:24N 35°19' E 139°38'0 0.0
2017-Nov-13 00:58N 35°19' E 139°38'0 0.0
2017-Nov-12 23:36N 35°19' E 139°38'1 8.6
2017-Nov-12 23:30N 35°19' E 139°39'713.3
2017-Nov-12 23:00N 35°25' E 139°42'2 4.7
2017-Nov-12 22:30N 35°27' E 139°40'1 1.7
2017-Nov-12 22:00N 35°27' E 139°41'510.2
2017-Nov-12 21:30N 35°25' E 139°46'511.0
2017-Nov-12 21:00N 35°19' E 139°44'5 9.0
2017-Nov-12 20:31N 35°16' E 139°47'510.1
2017-Nov-12 20:00N 35°10' E 139°47'3 5.5
2017-Nov-12 19:30N 35°13' E 139°46'713.8
2017-Nov-12 19:00N 35°19' E 139°41'2 0.5
2017-Nov-12 15:16N 35°19' E 139°38'0 0.0
2017-Nov-12 09:10N 35°19' E 139°38'210.5
2017-Nov-12 09:01N 35°19' E 139°40'714.4
2017-Nov-12 08:31N 35°13' E 139°46'4 8.7
2017-Nov-12 08:00N 35°17' E 139°45'714.2
2017-Nov-12 07:30N 35°24' E 139°43'2 3.7
2017-Nov-12 07:00N 35°25' E 139°45'3 6.3
2017-Nov-12 06:30N 35°22' E 139°43'510.4
2017-Nov-12 06:00N 35°19' E 139°38'0 0.0
2017-Nov-12 05:30N 35°19' E 139°38'0 0.0
2017-Nov-12 04:53N 35°19' E 139°38'0 0.0
2017-Nov-12 04:17N 35°19' E 139°38'0 0.0
2017-Nov-12 04:00N 35°19' E 139°38'0 0.0
2017-Nov-12 03:28N 35°19' E 139°38'0 0.0
2017-Nov-12 02:54N 35°19' E 139°38'0 0.0
2017-Nov-12 02:30N 35°19' E 139°38'611.2
2017-Nov-12 02:00N 35°22' E 139°44'1 2.7
2017-Nov-12 01:30N 35°22' E 139°45'510.8
2017-Nov-12 01:00N 35°17' E 139°46'612.3
2017-Nov-12 00:30N 35°11' E 139°47'2 4.4
2017-Nov-12 00:00N 35°13' E 139°46'713.0
2017-Nov-11 23:29N 35°19' E 139°42'3 0.1
2017-Nov-10 14:17N 35°19' E 139°38'311.5
2017-Nov-10 14:00N 35°18' E 139°42'612.5
2017-Nov-10 13:30N 35°13' E 139°46'612.6
2017-Nov-10 13:00N 35°18' E 139°44'510.8
2017-Nov-10 12:31N 35°23' E 139°41'1 1.4
2017-Nov-10 12:01N 35°23' E 139°40'2 3.2
2017-Nov-10 11:30N 35°22' E 139°41'4 1.1
2017-Nov-10 07:34N 35°19' E 139°38'0 0.0
2017-Nov-10 07:25N 35°19' E 139°38'0 0.0
2017-Nov-10 07:00N 35°19' E 139°38'0 0.0
2017-Nov-10 06:28N 35°19' E 139°38'0 0.0
2017-Nov-10 05:56N 35°19' E 139°38'0 0.0
2017-Nov-10 05:29N 35°19' E 139°38'0 0.0
2017-Nov-10 04:47N 35°19' E 139°38'0 0.0
2017-Nov-10 04:29N 35°19' E 139°38'0 0.0
2017-Nov-10 04:00N 35°19' E 139°38'0 0.0
2017-Nov-10 03:30N 35°19' E 139°38'4 8.2
2017-Nov-10 03:01N 35°20' E 139°43'611.6
2017-Nov-10 02:30N 35°15' E 139°47'4 8.9
2017-Nov-10 02:00N 35°10' E 139°47'4 8.7
2017-Nov-10 01:30N 35°14' E 139°45'612.8
2017-Nov-10 01:00N 35°19' E 139°40'1 2.0
2017-Nov-10 00:30N 35°19' E 139°38'  

Dump ship's entire track history